CheckWX is a tool to help pilots better visualize weather data.  It is not intended as a substitute for an official pre-flight weather briefing.

14:47:37 UTC

LFSL TAF
Brive–Souillac Airport
Brive-la-Gaillarde, France
TAF LFSL 231400Z 2315/2324 33005KT CAVOK BECMG 2322/2324 VRB02KT

Mar-23@
15:00 UTC

Mar-23 @ 15:00 UTC

Mar-23@
22:00 UTC

Mar-23 @ 22:00 UTC

TAF LFSL 231400Z 2315/2324 33005KT CAVOK
Wind
  • 330° at 5 KTS
Conditions
No significant weather
Cloud Levels
  • No significant clouds

Mar-23@
22:00 UTC

Mar-23 @ 22:00 UTC

Mar-24@
00:00 UTC

Mar-24 @ 00:00 UTC

BECMG 2322/2324 VRB02KT

Becoming

Becoming Conditions expected by Sun, Mar 24, 2019 @ 00:00 UTC

Wind
  • Variable at 2 KTS
Conditions
No significant weather
Cloud Levels
  • No significant clouds